Ehrmandale, Indiana
Current Conditions -  °F | °C
As of 5:53 PM on Saturday 25 Oct 2014 (Local Time) from KHUF Reporting Station
Clear Clear  
Wind Chill: 77°   Ceiling: Unl
Heat Index: 78°   Visibility: 10mi
Dew Point: 46°   Wind: 10mph
Humidity: 33%   Direction: 290°WNW
Pressure: 29.96"   Gusts: NA
Location:  39.543°N, 87.3153°W
Report Text: KHUF 252153Z 29009KT 10SM CLR 25/08 A2996 RMK AO2 SLP141 T02500078
Loading
Personal Weather Stations






























Interactive Weather Map
Tropical Storm Tracking
New forecast layout! Learn more

10-Day Weather Forecast

Advertisements
Track Severe Weather on mobile